Terminal Aerodrome Forecast
Issued by NWS

Home | Current Version | Previous Version | Text Only | Print | Product List | Glossary On
Versions: 1 2 3 4 5 6 7 8 9 10 11 12 13 14
000
FTUS42 KMLB 231700
TAFLEE
TAF
KLEE 231722Z 2318/2418 27003KT P6SM VCSH BKN060 BKN090
      TEMPO 2319/2322 -SHRA BKN035 BKN050
     FM240200 15003KT P6SM SCT040 BKN140
      TEMPO 2409/2412 5SM BR FEW005=

USA.gov is the U.S. government's official web portal to all federal, state and local government web resources and services.